Terminal Aerodrome Forecast
Issued by NWS

Home | Current Version | Previous Version | Text Only | Print | Product List | Glossary On
Versions: 1 2 3 4 5 6 7 8 9 10 11 12 13 14 15 16 17 18
303
FTUS42 KFFC 240520
TAFPDK
TAF
KPDK 240520Z 2406/2506 25003KT P6SM SCT120 SCT250
     FM241400 27006KT P6SM FEW040 SCT250
     FM241600 28007KT P6SM VCSH SCT050 PROB30 2417/2423 4SM TSRA
      BKN035CB
     FM250000 26005KT P6SM SCT120 BKN250=

USA.gov is the U.S. government's official web portal to all federal, state and local government web resources and services.